Detall de PIREP

Printer-friendly versionPDF version

[2012/12/18 09:08:00]
Flight IATA:CT2108
Pilot Number:041
Company ICAO:CAT
Aircraft Type:A320/E
PAX:115
Departing Airport: LEVC
Destination Airport: LEMG
Alternate Airport:LEMD
Online: VATSIM
Route:DCT ASTRO UM985 VIBAS VIBAS.VI1DCQ
Flight Level:F250
No Slew and time accel
No pause
Crash detect
Detect pilot in Cockpit between each 30 and 45 minutes
09:08 Zero fuel Weight: 130261 Lbs, Fuel Weight: 11593 Lbs
09:08 VATSIM:LEVC 180900Z VRB02KT 9999 FEW030 13/05 Q1022 NOSIG
09:08 VATSIM:LEMG 180900Z 28012KT 9999 FEW020 17/13 Q1023 NOSIG
09:09 VOICE CATALONIAN
09:15 Parking Brakes off
09:21 Take-off
09:21 Take off Weight: 140872 Lbs
09:21 Wind: 217º @ 002 Knots Heading: 297º
09:21 POS N39º 29´ 24´´ W000º 29´ 02´´
09:21 Flaps:3 at 156 Knots
09:21 Gear Up: 158 Knots
09:22 Flaps:1 at 177 Knots
09:22 Flaps:0 at 189 Knots
09:31 TOC
09:31 Fuel Weight: 7676 Lb
09:36 Wind:215º@001 Knots Heading: 231º Ground Speed: 414 Knots Altitude 25265 ft
09:50 TOD
09:50 Fuel Weight: 5318 Lb
09:51 Wind:121º@003 Knots Heading: 225º Ground Speed: 343 Knots Altitude 23464 ft
10:06 Wind:243º@009 Knots Heading: 254º Ground Speed: 251 Knots Altitude 4580 ft
10:10 Flaps:1 at 202 Knots
10:11 Flaps:2 at 188 Knots
10:11 Gear Down: 182 Knots
10:12 Flaps:3 at 152 Knots
10:13 Flaps:4 at 141 Knots
10:13 Flaps:5 at 147 Knots
10:15 TouchDown:Rate -57 ft/min Speed: 128 Knots
10:15 VATSIM:LEMG 181000Z 29007KT 9999 FEW030 19/13 Q1024 NOSIG
10:15 Land
10:15 Wind:287º@010 Knots
10:15 Heading: 320º
10:15 Flight Duration: 00:54
10:15 Landing Weight: 133476 Lbs
10:15 POS N36º 40´ 19´´ W004º 29´ 43´´
10:18 Parking brakes on
10:18 Block to Block Duration: 01:03
10:18 Final Fuel: 2971 Lbls
10:18 Spent Fuel: 8622 Lbls
10:18 Flight Length: 291 NM
10:18 TOD Land Length: 105 NM

Exportar CSV

Powered by Drupal - Modified by Danger4k